Verviers, Belgium
Current Conditions -  °F | °C
As of 2:25 AM on Thursday 27 Nov 2014 (Local Time) from EBLB Reporting Station
Broken Clouds Broken Clouds  
Wind Chill: 38°   Ceiling: 100
Heat Index: 41°   Visibility: 1.4mi
Dew Point: 41°   Wind: 5mph
Humidity: 100%   Direction: 200°SSW
Pressure: 29.83"   Gusts: NA
Location:  50.59°N, 5.86°E
Report Text: EBLB 270125Z AUTO 20004KT 2300 BKN001/// 05/05 Q1010 RED
Loading
Personal Weather Stations






























Interactive Weather Map New forecast layout! Learn more

10-Day Weather Forecast

Advertisements
Track Severe Weather on mobile